createdAt,value
2016-05-29T00:00:52.654Z,22.31
2016-05-29T00:01:52.641Z,22.38
2016-05-29T00:02:52.628Z,22.31
2016-05-29T00:03:52.631Z,22.29
2016-05-29T00:04:52.602Z,22.33
2016-05-29T00:05:52.590Z,22.26
2016-05-29T00:06:52.436Z,22.27
2016-05-29T00:07:52.564Z,22.21
2016-05-29T00:08:52.567Z,22.17
2016-05-29T00:09:52.537Z,22.19
2016-05-29T00:10:52.540Z,22.19
2016-05-29T00:11:52.417Z,22.19
2016-05-29T00:12:52.359Z,22.26
2016-05-29T00:13:52.501Z,22.26
2016-05-29T00:14:52.488Z,22.3
2016-05-29T00:15:52.460Z,22.27
2016-05-29T00:16:52.463Z,22.21
2016-05-29T00:17:52.434Z,22.17
2016-05-29T00:18:52.437Z,22.12
2016-05-29T00:19:52.424Z,22.08
2016-05-29T00:20:52.395Z,22.09
2016-05-29T00:21:52.398Z,22.08
2016-05-29T00:22:52.385Z,22.17
2016-05-29T00:23:52.388Z,22.09
2016-05-29T00:24:52.360Z,22.15
2016-05-29T00:25:52.033Z,22.15
2016-05-29T00:26:52.333Z,22.14
2016-05-29T00:27:52.429Z,22.08
2016-05-29T00:28:52.307Z,22.11
2016-05-29T00:29:52.138Z,22.12
2016-05-29T00:30:52.297Z,22.11
2016-05-29T00:31:52.284Z,22.06
2016-05-29T00:32:52.256Z,22.14
2016-05-29T00:33:52.102Z,22.15
2016-05-29T00:34:52.246Z,22.12
2016-05-29T00:35:52.482Z,22.15
2016-05-29T00:36:52.204Z,22.15
2016-05-29T00:37:52.206Z,22.09
2016-05-29T00:38:52.022Z,22.15
2016-05-29T00:39:52.040Z,22.08
2016-05-29T00:40:52.043Z,22.11
2016-05-29T00:41:52.155Z,22.17
2016-05-29T00:42:52.142Z,22.09
2016-05-29T00:43:52.473Z,22.09
2016-05-29T00:44:52.116Z,22.17
2016-05-29T00:45:52.103Z,22.14
2016-05-29T00:46:52.090Z,22.12
2016-05-29T00:47:52.077Z,22.09
2016-05-29T00:48:52.064Z,22.12
2016-05-29T00:49:51.895Z,22.08
2016-05-29T00:50:52.819Z,22.06
2016-05-29T00:51:52.464Z,22.15
2016-05-29T00:52:52.013Z,22.06
2016-05-29T00:53:52.000Z,22.14
2016-05-29T00:54:51.986Z,22.09
2016-05-29T00:55:51.974Z,22.08
2016-05-29T00:56:51.976Z,22.08
2016-05-29T00:57:51.949Z,22.08
2016-05-29T00:58:51.935Z,22.08
2016-05-29T00:59:52.421Z,22.11
2016-05-29T01:00:51.910Z,22.04
2016-05-29T01:01:51.912Z,22.02
2016-05-29T01:02:51.883Z,22.06
2016-05-29T01:03:51.870Z,22.06
2016-05-29T01:04:51.701Z,22.11
2016-05-29T01:05:52.063Z,22.06
2016-05-29T01:06:51.832Z,22.08
2016-05-29T01:07:52.475Z,22.08
2016-05-29T01:08:51.821Z,22.11
2016-05-29T01:09:51.651Z,22.11
2016-05-29T01:10:51.779Z,22.15
2016-05-29T01:11:51.798Z,22.08
2016-05-29T01:12:51.753Z,22.19
2016-05-29T01:13:51.741Z,22.08
2016-05-29T01:14:51.744Z,22.05
2016-05-29T01:15:51.762Z,22.06
2016-05-29T01:16:51.717Z,22.08
2016-05-29T01:17:51.705Z,22.11
2016-05-29T01:18:51.692Z,22.01
2016-05-29T01:19:51.663Z,22.06
2016-05-29T01:20:51.666Z,22.04
2016-05-29T01:21:51.653Z,22.09
2016-05-29T01:22:51.483Z,22.14
2016-05-29T01:23:51.799Z,22.08
2016-05-29T01:24:51.614Z,22.11
2016-05-29T01:25:51.602Z,22.14
2016-05-29T01:26:51.572Z,22.06
2016-05-29T01:27:51.575Z,22.15
2016-05-29T01:28:51.563Z,22.08
2016-05-29T01:29:51.394Z,22.08
2016-05-29T01:30:51.537Z,22.05
2016-05-29T01:31:51.774Z,22.05
2016-05-29T01:32:51.511Z,22.09
2016-05-29T01:33:51.498Z,22.06
2016-05-29T01:34:51.485Z,22.04
2016-05-29T01:35:51.832Z,21.99
2016-05-29T01:36:51.459Z,22.05
2016-05-29T01:37:51.446Z,21.99
2016-05-29T01:38:51.293Z,22.01
2016-05-29T01:39:51.779Z,21.99
2016-05-29T01:40:51.407Z,22.11
2016-05-29T01:41:51.395Z,22.05
2016-05-29T01:42:51.381Z,21.99
2016-05-29T01:43:51.368Z,22.01
2016-05-29T01:44:51.356Z,22.05
2016-05-29T01:45:51.203Z,22.02
2016-05-29T01:46:51.392Z,22.02
2016-05-29T01:47:51.176Z,22.09
2016-05-29T01:48:51.303Z,22.05
2016-05-29T01:49:51.150Z,22.11
2016-05-29T01:50:51.153Z,22.08
2016-05-29T01:51:51.280Z,22.02
2016-05-29T01:52:51.267Z,22.08
2016-05-29T01:53:51.255Z,21.99
2016-05-29T01:54:51.444Z,21.99
2016-05-29T01:55:51.229Z,21.99
2016-05-29T01:56:51.216Z,22.04
2016-05-29T01:57:51.202Z,22.04
2016-05-29T01:58:51.191Z,21.93
2016-05-29T01:59:51.177Z,21.91
2016-05-29T02:00:51.164Z,21.94
2016-05-29T02:01:51.151Z,21.93
2016-05-29T02:02:51.404Z,21.93
2016-05-29T02:03:51.126Z,21.86
2016-05-29T02:04:50.957Z,21.93
2016-05-29T02:05:51.116Z,21.86
2016-05-29T02:06:50.929Z,21.94
2016-05-29T02:07:51.074Z,21.85
2016-05-29T02:08:51.061Z,21.86
2016-05-29T02:09:51.063Z,21.9
2016-05-29T02:10:51.237Z,21.9
2016-05-29T02:11:51.038Z,21.99
2016-05-29T02:12:51.009Z,21.93
2016-05-29T02:13:50.996Z,21.96
2016-05-29T02:14:50.983Z,21.98
2016-05-29T02:15:50.814Z,21.91
2016-05-29T02:16:50.817Z,21.98
2016-05-29T02:17:50.960Z,21.94
2016-05-29T02:18:51.447Z,21.89
2016-05-29T02:19:50.606Z,21.94
2016-05-29T02:20:50.764Z,21.91
2016-05-29T02:21:50.595Z,21.93
2016-05-29T02:22:50.739Z,21.93
2016-05-29T02:23:50.882Z,21.93
2016-05-29T02:24:50.869Z,21.91
2016-05-29T02:25:50.856Z,21.94
2016-05-29T02:26:51.594Z,21.89
2016-05-29T02:27:50.830Z,22.01
2016-05-29T02:28:50.833Z,21.89
2016-05-29T02:29:50.805Z,21.91
2016-05-29T02:30:50.789Z,21.93
2016-05-29T02:31:50.619Z,21.83
2016-05-29T02:32:50.763Z,21.83
2016-05-29T02:33:50.750Z,21.86
2016-05-29T02:34:50.738Z,21.82
2016-05-29T02:35:50.740Z,21.91
2016-05-29T02:36:50.712Z,21.85
2016-05-29T02:37:50.698Z,21.74
2016-05-29T02:38:50.529Z,21.79
2016-05-29T02:39:50.673Z,21.81
2016-05-29T02:40:50.659Z,21.79
2016-05-29T02:41:50.647Z,21.83
2016-05-29T02:42:50.696Z,21.86
2016-05-29T02:43:50.637Z,21.79
2016-05-29T02:44:50.608Z,21.81
2016-05-29T02:45:50.611Z,21.83
2016-05-29T02:46:50.614Z,21.81
2016-05-29T02:47:50.569Z,21.86
2016-05-29T02:48:50.557Z,21.83
2016-05-29T02:49:50.418Z,21.79
2016-05-29T02:50:50.750Z,21.85
2016-05-29T02:51:50.517Z,21.82
2016-05-29T02:52:50.519Z,21.82
2016-05-29T02:53:50.523Z,21.79
2016-05-29T02:54:50.494Z,21.81
2016-05-29T02:55:50.481Z,21.75
2016-05-29T02:56:50.468Z,21.77
2016-05-29T02:57:50.315Z,21.71
2016-05-29T02:58:51.632Z,21.74
2016-05-29T02:59:50.413Z,21.75
2016-05-29T03:00:50.417Z,21.71
2016-05-29T03:01:50.404Z,21.79
2016-05-29T03:02:50.407Z,21.73
2016-05-29T03:03:50.393Z,21.75
2016-05-29T03:04:50.365Z,21.77
2016-05-29T03:05:51.118Z,21.75
2016-05-29T03:06:50.370Z,21.7
2016-05-29T03:07:50.341Z,21.68
2016-05-29T03:08:50.329Z,21.71
2016-05-29T03:09:50.316Z,21.73
2016-05-29T03:10:50.287Z,21.71
2016-05-29T03:11:50.306Z,21.63
2016-05-29T03:12:50.668Z,21.67
2016-05-29T03:13:50.107Z,21.71
2016-05-29T03:14:50.251Z,21.7
2016-05-29T03:15:50.223Z,21.63
2016-05-29T03:16:50.241Z,21.63
2016-05-29T03:17:50.056Z,21.67
2016-05-29T03:18:50.199Z,21.68
2016-05-29T03:19:50.186Z,21.77
2016-05-29T03:20:50.705Z,21.83
2016-05-29T03:21:50.864Z,21.71
2016-05-29T03:22:49.991Z,21.81
2016-05-29T03:23:50.120Z,21.71
2016-05-29T03:24:50.137Z,21.79
2016-05-29T03:25:50.108Z,21.74
2016-05-29T03:26:50.081Z,21.71
2016-05-29T03:27:50.067Z,21.75
2016-05-29T03:28:50.070Z,21.73
2016-05-29T03:29:50.650Z,21.75
2016-05-29T03:30:50.044Z,21.75
2016-05-29T03:31:50.031Z,21.71
2016-05-29T03:32:50.018Z,21.75
2016-05-29T03:33:50.005Z,21.89
2016-05-29T03:34:49.993Z,21.98
2016-05-29T03:35:50.401Z,22.02
2016-05-29T03:36:49.966Z,22.05
2016-05-29T03:37:50.001Z,22.15
2016-05-29T03:38:49.957Z,22.15
2016-05-29T03:39:49.943Z,22.23
2016-05-29T03:40:49.930Z,22.17
2016-05-29T03:41:49.918Z,22.15
2016-05-29T03:42:49.904Z,22.15
2016-05-29T03:43:49.720Z,22.17
2016-05-29T03:44:49.879Z,22.2
2016-05-29T03:45:49.881Z,22.2
2016-05-29T03:46:49.868Z,22.21
2016-05-29T03:47:49.840Z,22.23
2016-05-29T03:48:50.139Z,22.21
2016-05-29T03:49:49.814Z,22.19
2016-05-29T03:50:49.520Z,22.21
2016-05-29T03:51:49.804Z,22.24
2016-05-29T03:52:49.775Z,22.26
2016-05-29T03:53:49.762Z,22.29
2016-05-29T03:54:49.859Z,22.27
2016-05-29T03:55:49.736Z,22.19
2016-05-29T03:56:49.583Z,22.24
2016-05-29T03:57:49.711Z,22.17
2016-05-29T03:58:49.728Z,22.17
2016-05-29T03:59:49.685Z,22.23
2016-05-29T04:00:49.671Z,22.24
2016-05-29T04:01:49.847Z,22.24
2016-05-29T04:02:49.943Z,22.26
2016-05-29T04:03:49.632Z,22.23
2016-05-29T04:04:49.620Z,22.21
2016-05-29T04:05:49.920Z,22.27
2016-05-29T04:06:49.625Z,22.29
2016-05-29T04:07:49.596Z,22.21
2016-05-29T04:08:49.585Z,22.19
2016-05-29T04:09:49.868Z,22.29
2016-05-29T04:10:49.948Z,22.26
2016-05-29T04:11:49.545Z,22.26
2016-05-29T04:12:49.532Z,22.24
2016-05-29T04:13:49.519Z,22.2
2016-05-29T04:14:49.506Z,22.29
2016-05-29T04:15:49.509Z,22.24
2016-05-29T04:16:49.465Z,22.26
2016-05-29T04:17:49.701Z,22.23
2016-05-29T04:18:50.017Z,22.27
2016-05-29T04:19:49.442Z,22.26
2016-05-29T04:20:49.929Z,22.27
2016-05-29T04:21:49.431Z,22.21
2016-05-29T04:22:49.387Z,22.3
2016-05-29T04:23:49.390Z,22.33
2016-05-29T04:24:49.220Z,22.17
2016-05-29T04:25:49.864Z,22.3
2016-05-29T04:26:49.194Z,22.31
2016-05-29T04:27:49.339Z,22.3
2016-05-29T04:28:49.325Z,22.23
2016-05-29T04:29:49.311Z,22.19
2016-05-29T04:30:49.143Z,22.24
2016-05-29T04:31:49.317Z,22.24
2016-05-29T04:32:51.477Z,22.26
2016-05-29T04:33:49.276Z,22.3
2016-05-29T04:34:49.248Z,22.2
2016-05-29T04:35:49.250Z,22.3
2016-05-29T04:36:49.222Z,22.29
2016-05-29T04:37:49.193Z,22.23
2016-05-29T04:38:49.195Z,22.33
2016-05-29T04:39:49.183Z,22.29
2016-05-29T04:40:49.716Z,22.26
2016-05-29T04:41:49.173Z,22.2
2016-05-29T04:42:48.987Z,22.24
2016-05-29T04:43:49.132Z,22.3
2016-05-29T04:44:49.118Z,22.29
2016-05-29T04:45:49.104Z,22.26
2016-05-29T04:46:48.780Z,22.26
2016-05-29T04:47:48.923Z,22.24
2016-05-29T04:48:48.957Z,22.29
2016-05-29T04:49:49.054Z,22.27
2016-05-29T04:50:49.056Z,22.24
2016-05-29T04:51:49.028Z,22.26
2016-05-29T04:52:49.030Z,22.33
2016-05-29T04:53:49.017Z,22.26
2016-05-29T04:54:48.989Z,22.26
2016-05-29T04:55:48.976Z,22.29
2016-05-29T04:56:48.963Z,22.29
2016-05-29T04:57:48.950Z,22.21
2016-05-29T04:58:48.937Z,22.26
2016-05-29T04:59:48.939Z,22.12
2016-05-29T05:00:48.911Z,22.21
2016-05-29T05:01:48.914Z,22.26
2016-05-29T05:02:48.901Z,22.26
2016-05-29T05:03:48.903Z,22.24
2016-05-29T05:04:48.969Z,22.3
2016-05-29T05:05:49.018Z,22.21
2016-05-29T05:06:48.849Z,22.19
2016-05-29T05:07:48.821Z,22.27
2016-05-29T05:08:48.823Z,22.21
2016-05-29T05:09:48.811Z,22.27
2016-05-29T05:10:48.813Z,22.23
2016-05-29T05:11:48.629Z,22.21
2016-05-29T05:12:49.021Z,22.23
2016-05-29T05:13:48.743Z,22.29
2016-05-29T05:14:48.746Z,22.26
2016-05-29T05:15:48.748Z,22.2
2016-05-29T05:16:48.721Z,22.31
2016-05-29T05:17:48.723Z,22.17
2016-05-29T05:18:48.694Z,22.21
2016-05-29T05:19:48.712Z,22.27
2016-05-29T05:20:49.027Z,22.24
2016-05-29T05:21:48.656Z,22.27
2016-05-29T05:22:48.486Z,22.2
2016-05-29T05:23:48.489Z,22.29
2016-05-29T05:24:48.631Z,22.17
2016-05-29T05:25:48.604Z,22.17
2016-05-29T05:26:48.606Z,22.19
2016-05-29T05:27:48.639Z,22.29
2016-05-29T05:28:49.018Z,22.27
2016-05-29T05:29:48.552Z,22.23
2016-05-29T05:30:48.539Z,22.27
2016-05-29T05:31:48.541Z,22.26
2016-05-29T05:32:48.372Z,22.19
2016-05-29T05:33:48.516Z,22.26
2016-05-29T05:34:48.502Z,22.29
2016-05-29T05:35:48.568Z,22.23
2016-05-29T05:36:48.477Z,22.24
2016-05-29T05:37:48.464Z,22.2
2016-05-29T05:38:48.310Z,22.26
2016-05-29T05:39:48.266Z,22.14
2016-05-29T05:40:48.269Z,22.21
2016-05-29T05:41:48.396Z,22.23
2016-05-29T05:42:48.399Z,22.15
2016-05-29T05:43:48.510Z,22.14
2016-05-29T05:44:48.373Z,22.24
2016-05-29T05:45:48.204Z,22.24
2016-05-29T05:46:48.363Z,22.17
2016-05-29T05:47:48.334Z,22.21
2016-05-29T05:48:48.306Z,22.19
2016-05-29T05:49:48.309Z,22.24
2016-05-29T05:50:48.529Z,22.21
2016-05-29T05:51:48.627Z,22.19
2016-05-29T05:52:48.270Z,22.2
2016-05-29T05:53:48.116Z,22.24
2016-05-29T05:54:48.245Z,22.17
2016-05-29T05:55:48.231Z,22.15
2016-05-29T05:56:48.202Z,22.29
2016-05-29T05:57:48.205Z,22.24
2016-05-29T05:58:48.036Z,22.14
2016-05-29T05:59:48.695Z,22.27
2016-05-29T06:00:48.181Z,22.19
2016-05-29T06:01:47.997Z,22.19
2016-05-29T06:02:48.155Z,22.23
2016-05-29T06:03:48.144Z,22.26
2016-05-29T06:04:48.114Z,22.24
2016-05-29T06:05:47.977Z,22.15
2016-05-29T06:06:47.947Z,22.17
2016-05-29T06:07:48.686Z,22.2
2016-05-29T06:08:48.078Z,22.19
2016-05-29T06:09:48.049Z,22.21
2016-05-29T06:10:48.052Z,22.21
2016-05-29T06:11:48.040Z,22.26
2016-05-29T06:12:47.699Z,22.19
2016-05-29T06:13:47.841Z,22.27
2016-05-29T06:14:47.985Z,22.2
2016-05-29T06:15:48.676Z,22.23
2016-05-29T06:16:47.974Z,22.29
2016-05-29T06:17:47.977Z,22.19
2016-05-29T06:18:47.949Z,22.3
2016-05-29T06:19:47.780Z,22.2
2016-05-29T06:20:48.017Z,22.27
2016-05-29T06:21:47.910Z,22.24
2016-05-29T06:22:47.897Z,22.2
2016-05-29T06:23:48.681Z,22.26
2016-05-29T06:24:47.871Z,22.26
2016-05-29T06:25:47.873Z,22.2
2016-05-29T06:26:47.845Z,22.27
2016-05-29T06:27:47.692Z,22.24
2016-05-29T06:28:47.664Z,22.24
2016-05-29T06:29:47.806Z,22.21
2016-05-29T06:30:47.809Z,22.24
2016-05-29T06:31:48.844Z,22.15
2016-05-29T06:32:47.612Z,22.14
2016-05-29T06:33:47.599Z,22.23
2016-05-29T06:34:47.757Z,22.21
2016-05-29T06:35:47.745Z,22.27
2016-05-29T06:36:47.716Z,22.14
2016-05-29T06:37:47.703Z,22.14
2016-05-29T06:38:47.690Z,22.2
2016-05-29T06:39:47.991Z,22.23
2016-05-29T06:40:47.680Z,22.31
2016-05-29T06:41:47.666Z,22.17
2016-05-29T06:42:47.639Z,22.21
2016-05-29T06:43:47.626Z,22.21
2016-05-29T06:44:47.628Z,22.21
2016-05-29T06:45:47.615Z,22.24
2016-05-29T06:46:47.588Z,22.23
2016-05-29T06:47:47.949Z,22.2
2016-05-29T06:48:47.420Z,22.26
2016-05-29T06:49:47.563Z,22.31
2016-05-29T06:50:47.706Z,22.3
2016-05-29T06:51:47.538Z,22.17
2016-05-29T06:52:47.525Z,22.21
2016-05-29T06:53:47.356Z,22.31
2016-05-29T06:54:47.702Z,22.21
2016-05-29T06:55:47.987Z,22.35
2016-05-29T06:56:47.473Z,22.23
2016-05-29T06:57:47.459Z,22.23
2016-05-29T06:58:47.463Z,22.24
2016-05-29T06:59:47.434Z,22.3
2016-05-29T07:00:47.422Z,22.26
2016-05-29T07:01:47.408Z,22.19
2016-05-29T07:02:47.536Z,22.26
2016-05-29T07:03:47.383Z,22.21
2016-05-29T07:04:47.369Z,22.29
2016-05-29T07:05:47.950Z,22.29
2016-05-29T07:06:47.188Z,22.3
2016-05-29T07:07:47.331Z,22.21
2016-05-29T07:08:47.318Z,22.27
2016-05-29T07:09:47.321Z,22.21
2016-05-29T07:10:47.433Z,22.17
2016-05-29T07:11:47.279Z,22.27
2016-05-29T07:12:47.282Z,22.2
2016-05-29T07:13:47.097Z,22.27
2016-05-29T07:14:47.255Z,22.19
2016-05-29T07:15:47.227Z,22.23
2016-05-29T07:16:47.230Z,22.24
2016-05-29T07:17:47.217Z,22.27
2016-05-29T07:18:47.595Z,22.21
2016-05-29T07:19:47.191Z,22.3
2016-05-29T07:20:47.022Z,22.2
2016-05-29T07:21:47.181Z,22.29
2016-05-29T07:22:47.152Z,22.23
2016-05-29T07:23:47.139Z,22.27
2016-05-29T07:24:47.142Z,22.29
2016-05-29T07:25:46.957Z,22.26
2016-05-29T07:26:47.663Z,22.23
2016-05-29T07:27:47.103Z,22.27
2016-05-29T07:28:47.090Z,22.27
2016-05-29T07:29:47.093Z,22.3
2016-05-29T07:30:47.064Z,22.24
2016-05-29T07:31:46.880Z,22.26
2016-05-29T07:32:47.023Z,22.24
2016-05-29T07:33:47.010Z,22.19
2016-05-29T07:34:47.654Z,22.29
2016-05-29T07:35:46.922Z,22.3
2016-05-29T07:36:46.972Z,22.29
2016-05-29T07:37:46.958Z,22.23
2016-05-29T07:38:46.944Z,22.23
2016-05-29T07:39:46.948Z,22.3
2016-05-29T07:40:46.935Z,22.23
2016-05-29T07:41:46.610Z,22.29
2016-05-29T07:42:47.627Z,22.17
2016-05-29T07:43:46.725Z,22.19
2016-05-29T07:44:46.883Z,22.24
2016-05-29T07:45:46.713Z,22.24
2016-05-29T07:46:46.842Z,22.23
2016-05-29T07:47:46.844Z,22.21
2016-05-29T07:48:46.816Z,22.29
2016-05-29T07:49:46.662Z,22.24
2016-05-29T07:50:47.821Z,22.23
2016-05-29T07:51:47.074Z,22.24
2016-05-29T07:52:46.779Z,22.27
2016-05-29T07:53:46.767Z,22.23
2016-05-29T07:54:46.754Z,22.24
2016-05-29T07:55:46.741Z,22.31
2016-05-29T07:56:46.572Z,22.23
2016-05-29T07:57:46.715Z,22.24
2016-05-29T07:58:47.484Z,22.26
2016-05-29T07:59:46.705Z,22.24
2016-05-29T08:00:46.786Z,22.21
2016-05-29T08:01:46.664Z,22.29
2016-05-29T08:02:46.495Z,22.2
2016-05-29T08:03:46.637Z,22.21
2016-05-29T08:04:46.639Z,22.24
2016-05-29T08:05:46.486Z,22.29
2016-05-29T08:06:46.661Z,22.29
2016-05-29T08:07:48.227Z,22.3
2016-05-29T08:08:46.588Z,22.23
2016-05-29T08:09:46.575Z,22.26
2016-05-29T08:10:46.578Z,22.21
2016-05-29T08:11:46.550Z,22.23
2016-05-29T08:12:48.458Z,22.24
2016-05-29T08:13:46.524Z,22.21
2016-05-29T08:14:46.791Z,22.26
2016-05-29T08:15:46.483Z,22.27
2016-05-29T08:16:46.485Z,22.24
2016-05-29T08:17:51.253Z,22.29
2016-05-29T08:18:46.319Z,22.3
2016-05-29T08:19:46.290Z,22.23
2016-05-29T08:20:47.043Z,22.23
2016-05-29T08:21:46.264Z,22.29
2016-05-29T08:22:47.908Z,22.24
2016-05-29T08:23:46.395Z,22.24
2016-05-29T08:24:46.382Z,22.29
2016-05-29T08:25:46.228Z,22.19
2016-05-29T08:26:46.356Z,22.15
2016-05-29T08:27:50.287Z,22.15
2016-05-29T08:28:46.374Z,22.21
2016-05-29T08:29:46.384Z,22.15
2016-05-29T08:30:46.392Z,22.09
2016-05-29T08:31:46.403Z,22.23
2016-05-29T08:32:50.522Z,22.2
2016-05-29T08:33:46.236Z,22.2
2016-05-29T08:34:46.388Z,22.21
2016-05-29T08:35:46.821Z,22.2
2016-05-29T08:36:46.394Z,22.19
2016-05-29T08:37:46.383Z,22.2
2016-05-29T08:38:46.218Z,22.21
2016-05-29T08:39:46.349Z,22.19
2016-05-29T08:40:46.339Z,22.21
2016-05-29T08:41:46.328Z,22.21
2016-05-29T08:42:49.957Z,22.27
2016-05-29T08:43:46.320Z,22.19
2016-05-29T08:44:46.324Z,22.19
2016-05-29T08:45:46.295Z,22.15
2016-05-29T08:46:46.283Z,22.23
2016-05-29T08:47:51.458Z,22.2
2016-05-29T08:48:46.274Z,22.19
2016-05-29T08:49:46.230Z,22.2
2016-05-29T08:50:46.499Z,22.02
2016-05-29T08:51:46.627Z,21.91
2016-05-29T08:52:50.942Z,21.98
2016-05-29T08:53:46.211Z,22.05
2016-05-29T08:54:46.027Z,22.02
2016-05-29T08:55:46.171Z,21.93
2016-05-29T08:56:46.142Z,22.02
2016-05-29T08:57:49.020Z,21.99
2016-05-29T08:58:46.132Z,22.08
2016-05-29T08:59:46.119Z,22.05
2016-05-29T09:00:46.122Z,22.02
2016-05-29T09:01:46.093Z,22.09
2016-05-29T09:02:45.940Z,22.04
2016-05-29T09:03:46.177Z,22.05
2016-05-29T09:04:45.742Z,21.99
2016-05-29T09:05:46.088Z,22.08
2016-05-29T09:06:46.247Z,22.08
2016-05-29T09:07:51.766Z,22.09
2016-05-29T09:08:45.847Z,22.09
2016-05-29T09:09:45.989Z,22.11
2016-05-29T09:10:45.836Z,22.04
2016-05-29T09:11:46.166Z,22.09
2016-05-29T09:12:48.389Z,22.08
2016-05-29T09:13:45.954Z,22.14
2016-05-29T09:14:45.941Z,22.09
2016-05-29T09:15:45.927Z,22.06
2016-05-29T09:16:45.915Z,22.01
2016-05-29T09:17:46.855Z,22.09
2016-05-29T09:18:45.732Z,22.11
2016-05-29T09:19:46.173Z,22.06
2016-05-29T09:20:46.410Z,22.11
2016-05-29T09:21:45.866Z,22.06
2016-05-29T09:22:49.587Z,22.15
2016-05-29T09:23:45.668Z,22.12
2016-05-29T09:24:45.812Z,22.17
2016-05-29T09:25:45.798Z,22.14
2016-05-29T09:26:45.629Z,22.14
2016-05-29T09:27:46.648Z,22.12
2016-05-29T09:28:45.759Z,22.15
2016-05-29T09:29:45.747Z,22.17
2016-05-29T09:30:45.734Z,22.15
2016-05-29T09:31:45.720Z,22.14
2016-05-29T09:32:46.739Z,22.15
2016-05-29T09:33:45.695Z,22.14
2016-05-29T09:34:45.682Z,22.14
2016-05-29T09:35:46.481Z,22.17
2016-05-29T09:36:45.734Z,22.12
2016-05-29T09:37:45.675Z,22.14
2016-05-29T09:38:45.630Z,22.23
2016-05-29T09:39:45.461Z,22.15
2016-05-29T09:40:45.463Z,22.19
2016-05-29T09:41:45.450Z,22.19
2016-05-29T09:42:47.766Z,22.19
2016-05-29T09:43:46.175Z,22.2
2016-05-29T09:44:45.568Z,22.26
2016-05-29T09:45:45.540Z,22.17
2016-05-29T09:46:45.527Z,22.14
2016-05-29T09:47:52.108Z,22.19
2016-05-29T09:48:45.344Z,22.12
2016-05-29T09:49:45.504Z,22.21
2016-05-29T09:50:45.366Z,22.17
2016-05-29T09:51:45.462Z,22.15
2016-05-29T09:52:47.059Z,22.17
2016-05-29T09:53:45.467Z,22.24
2016-05-29T09:54:45.440Z,22.14
2016-05-29T09:55:45.426Z,22.2
2016-05-29T09:56:45.413Z,22.19
2016-05-29T09:57:49.056Z,22.12
2016-05-29T09:58:45.387Z,22.14
2016-05-29T09:59:45.468Z,22.17
2016-05-29T10:00:45.205Z,22.12
2016-05-29T10:01:45.349Z,22.15
2016-05-29T10:02:47.711Z,22.15
2016-05-29T10:03:45.323Z,22.17
2016-05-29T10:04:45.294Z,22.14
2016-05-29T10:05:45.780Z,22.06
2016-05-29T10:06:45.690Z,22.2
2016-05-29T10:07:45.505Z,22.14
2016-05-29T10:08:45.258Z,22.12
2016-05-29T10:09:45.244Z,22.14
2016-05-29T10:10:45.233Z,22.17
2016-05-29T10:11:45.063Z,22.11
2016-05-29T10:12:47.769Z,22.14
2016-05-29T10:13:45.193Z,22.2
2016-05-29T10:14:45.868Z,22.14
2016-05-29T10:15:45.527Z,22.15
2016-05-29T10:16:45.185Z,22.19
2016-05-29T10:17:45.157Z,22.15
2016-05-29T10:18:45.143Z,22.15
2016-05-29T10:19:45.132Z,22.14
2016-05-29T10:20:45.259Z,22.17
2016-05-29T10:21:45.105Z,22.15
2016-05-29T10:22:45.529Z,22.11
2016-05-29T10:23:45.486Z,22.12
2016-05-29T10:24:45.066Z,22.12
2016-05-29T10:25:45.053Z,22.09
2016-05-29T10:26:45.041Z,22.09
2016-05-29T10:27:47.278Z,22.15
2016-05-29T10:28:45.031Z,22.09
2016-05-29T10:29:45.001Z,22.08
2016-05-29T10:30:45.145Z,22.09
2016-05-29T10:31:44.992Z,22.12
2016-05-29T10:32:44.962Z,22.17
2016-05-29T10:33:44.965Z,22.15
2016-05-29T10:34:44.953Z,22.12
2016-05-29T10:35:45.206Z,22.12
2016-05-29T10:36:45.489Z,22.15
2016-05-29T10:37:47.789Z,22.17
2016-05-29T10:38:45.150Z,22.19
2016-05-29T10:39:44.872Z,22.19
2016-05-29T10:40:44.859Z,22.19
2016-05-29T10:41:44.847Z,22.08
2016-05-29T10:42:44.849Z,22.05
2016-05-29T10:43:44.821Z,22.04
2016-05-29T10:44:44.808Z,22.12
2016-05-29T10:45:44.810Z,22.3
2016-05-29T10:46:45.141Z,22.27
2016-05-29T10:47:46.097Z,22.29
2016-05-29T10:48:44.772Z,22.29
2016-05-29T10:49:44.743Z,22.21
2016-05-29T10:50:44.605Z,22.26
2016-05-29T10:51:44.827Z,22.23
2016-05-29T10:52:45.704Z,22.24
2016-05-29T10:53:44.691Z,22.19
2016-05-29T10:54:45.304Z,22.23
2016-05-29T10:55:44.681Z,22.2
2016-05-29T10:56:44.652Z,22.19
2016-05-29T10:57:44.937Z,22.26
2016-05-29T10:58:44.329Z,22.14
2016-05-29T10:59:44.629Z,22.19
2016-05-29T11:00:44.617Z,22.14
2016-05-29T11:01:44.448Z,22.14
2016-05-29T11:02:46.075Z,22.14
2016-05-29T11:03:44.593Z,22.09
2016-05-29T11:04:44.565Z,22.09
2016-05-29T11:05:44.395Z,22.12
2016-05-29T11:06:45.289Z,22.23
2016-05-29T11:07:44.370Z,22.17
2016-05-29T11:08:44.513Z,22.17
2016-05-29T11:09:44.516Z,22.21
2016-05-29T11:10:45.190Z,22.21
2016-05-29T11:11:44.333Z,22.24
2016-05-29T11:12:44.570Z,22.23
2016-05-29T11:13:44.448Z,22.08
2016-05-29T11:14:44.450Z,22.06
2016-05-29T11:15:44.422Z,22.05
2016-05-29T11:16:44.440Z,21.99
2016-05-29T11:17:44.412Z,22.09
2016-05-29T11:18:44.446Z,22.11
2016-05-29T11:19:44.386Z,22.15
2016-05-29T11:20:44.373Z,22.17
2016-05-29T11:21:44.360Z,22.17
2016-05-29T11:22:44.347Z,22.14
2016-05-29T11:23:44.335Z,22.19
2016-05-29T11:24:44.306Z,22.11
2016-05-29T11:25:44.293Z,22.14
2016-05-29T11:26:44.498Z,22.14
2016-05-29T11:27:44.986Z,22.17
2016-05-29T11:28:44.301Z,22.12
2016-05-29T11:29:44.256Z,22.14
2016-05-29T11:30:44.260Z,22.11
2016-05-29T11:31:44.231Z,22.17
2016-05-29T11:32:45.078Z,22.19
2016-05-29T11:33:43.892Z,22.14
2016-05-29T11:34:44.489Z,22.15
2016-05-29T11:35:44.601Z,22.29
2016-05-29T11:36:45.401Z,22.3
2016-05-29T11:37:44.153Z,22.19
2016-05-29T11:38:43.984Z,22.14
2016-05-29T11:39:44.127Z,22.19
2016-05-29T11:40:44.115Z,22.15
2016-05-29T11:41:44.195Z,22.26
2016-05-29T11:42:45.292Z,22.36
2016-05-29T11:43:44.075Z,22.36
2016-05-29T11:44:44.063Z,22.33
2016-05-29T11:45:44.066Z,22.3
2016-05-29T11:46:44.036Z,22.3
2016-05-29T11:47:46.430Z,22.21
2016-05-29T11:48:44.042Z,22.3
2016-05-29T11:49:44.216Z,22.24
2016-05-29T11:50:44.438Z,22.29
2016-05-29T11:51:44.097Z,22.15
2016-05-29T11:52:44.756Z,22.19
2016-05-29T11:53:43.946Z,22.21
2016-05-29T11:54:43.933Z,22.29
2016-05-29T11:55:43.936Z,22.21
2016-05-29T11:56:43.907Z,22.24
2016-05-29T11:57:45.020Z,22.26
2016-05-29T11:58:43.898Z,22.24
2016-05-29T11:59:43.884Z,22.29
2016-05-29T12:00:43.715Z,22.23
2016-05-29T12:01:43.859Z,22.2
2016-05-29T12:02:46.658Z,22.27
2016-05-29T12:03:43.832Z,22.33
2016-05-29T12:04:43.664Z,22.29
2016-05-29T12:05:45.042Z,22.23
2016-05-29T12:06:43.809Z,22.15
2016-05-29T12:07:44.656Z,22.26
2016-05-29T12:08:43.784Z,22.24
2016-05-29T12:09:43.755Z,22.23
2016-05-29T12:10:43.742Z,22.26
2016-05-29T12:11:43.729Z,22.3
2016-05-29T12:12:43.575Z,22.19
2016-05-29T12:13:44.109Z,22.29
2016-05-29T12:14:43.691Z,22.17
2016-05-29T12:15:43.678Z,22.23
2016-05-29T12:16:43.664Z,22.27
2016-05-29T12:17:43.667Z,22.21
2016-05-29T12:18:43.638Z,22.29
2016-05-29T12:19:43.485Z,22.24
2016-05-29T12:20:44.722Z,22.31
2016-05-29T12:21:44.631Z,22.26
2016-05-29T12:22:45.508Z,22.24
2016-05-29T12:23:43.590Z,22.33
2016-05-29T12:24:43.576Z,22.29
2016-05-29T12:25:43.549Z,22.29
2016-05-29T12:26:43.551Z,22.24
2016-05-29T12:27:45.100Z,22.24
2016-05-29T12:28:43.540Z,22.21
2016-05-29T12:29:44.184Z,22.3
2016-05-29T12:30:43.343Z,22.31
2016-05-29T12:31:43.330Z,22.2
2016-05-29T12:32:44.817Z,22.21
2016-05-29T12:33:43.444Z,22.23
2016-05-29T12:34:43.447Z,22.19
2016-05-29T12:35:43.435Z,22.15
2016-05-29T12:36:43.421Z,22.2
2016-05-29T12:37:44.159Z,22.17
2016-05-29T12:38:43.426Z,22.24
2016-05-29T12:39:43.383Z,22.41
2016-05-29T12:40:43.369Z,22.35
2016-05-29T12:41:43.373Z,22.41
2016-05-29T12:42:43.344Z,22.35
2016-05-29T12:43:43.330Z,22.29
2016-05-29T12:44:43.317Z,22.31
2016-05-29T12:45:43.414Z,22.35
2016-05-29T12:46:43.152Z,22.21
2016-05-29T12:47:44.310Z,22.19
2016-05-29T12:48:43.125Z,22.12
2016-05-29T12:49:43.253Z,22.23
2016-05-29T12:50:43.256Z,22.3
2016-05-29T12:51:43.336Z,22.24
2016-05-29T12:52:44.168Z,22.2
2016-05-29T12:53:43.404Z,22.26
2016-05-29T12:54:43.205Z,22.24